createdAt,value
2023-11-27T00:01:04.611Z,94893.97
2023-11-27T00:03:32.567Z,94894.38
2023-11-27T00:06:00.400Z,94892.00
2023-11-27T00:08:28.257Z,94885.59
2023-11-27T00:10:58.775Z,94887.63
2023-11-27T00:13:27.954Z,94886.47
2023-11-27T00:15:57.185Z,94882.66
2023-11-27T00:18:25.042Z,94886.47
2023-11-27T00:20:53.692Z,94901.59
2023-11-27T00:23:21.574Z,94894.81
2023-11-27T00:25:49.444Z,94890.53
2023-11-27T00:28:17.361Z,94892.13
2023-11-27T00:30:45.754Z,94891.88
2023-11-27T00:33:15.875Z,94889.31
2023-11-27T00:35:43.856Z,94874.81
2023-11-27T00:38:11.720Z,94870.63
2023-11-27T00:40:39.541Z,94870.25
2023-11-27T00:43:07.388Z,94871.84
2023-11-27T00:45:35.525Z,94876.94
2023-11-27T00:48:03.411Z,94872.94
2023-11-27T00:50:33.019Z,94871.25
2023-11-27T00:53:00.874Z,94874.66
2023-11-27T00:55:28.759Z,94868.28
2023-11-27T00:57:56.957Z,94868.41
2023-11-27T01:00:26.073Z,94861.34
2023-11-27T01:02:54.829Z,94858.22
2023-11-27T01:05:22.848Z,94858.22
2023-11-27T01:07:52.275Z,94853.28
2023-11-27T01:10:20.388Z,94854.28
2023-11-27T01:12:51.313Z,94859.81
2023-11-27T01:15:19.943Z,94849.84
2023-11-27T01:17:47.880Z,94846.28
2023-11-27T01:20:15.881Z,94846.72
2023-11-27T01:22:44.105Z,94840.00
2023-11-27T01:25:13.416Z,94837.69
2023-11-27T01:27:41.300Z,94844.44
2023-11-27T01:30:10.056Z,94844.03
2023-11-27T01:32:38.295Z,94839.41
2023-11-27T01:35:06.949Z,94840.75
2023-11-27T01:37:35.356Z,94836.44
2023-11-27T01:40:03.270Z,94828.97
2023-11-27T01:42:32.491Z,94816.06
2023-11-27T01:45:00.356Z,94827.00
2023-11-27T01:47:28.214Z,94818.25
2023-11-27T01:49:56.834Z,94813.09
2023-11-27T01:52:27.089Z,94811.50
2023-11-27T01:54:55.588Z,94815.06
2023-11-27T01:57:25.642Z,94813.84
2023-11-27T01:59:57.519Z,94818.53
2023-11-27T02:02:25.938Z,94804.16
2023-11-27T02:04:53.897Z,94801.81
2023-11-27T02:07:22.028Z,94801.06
2023-11-27T02:09:49.956Z,94797.50
2023-11-27T02:12:17.838Z,94791.97
2023-11-27T02:14:46.351Z,94796.75
2023-11-27T02:17:15.701Z,94788.41
2023-11-27T02:19:43.589Z,94786.44
2023-11-27T02:22:11.566Z,94783.63
2023-11-27T02:24:40.836Z,94787.97
2023-11-27T02:27:08.797Z,94785.59
2023-11-27T02:29:36.878Z,94781.94
2023-11-27T02:32:07.448Z,94782.50
2023-11-27T02:34:35.369Z,94774.88
2023-11-27T02:37:03.310Z,94771.28
2023-11-27T02:39:31.176Z,94770.38
2023-11-27T02:42:02.065Z,94761.53
2023-11-27T02:44:30.353Z,94757.59
2023-11-27T02:46:58.278Z,94763.34
2023-11-27T02:49:26.168Z,94761.38
2023-11-27T02:51:54.041Z,94759.78
2023-11-27T02:54:21.950Z,94760.16
2023-11-27T02:56:49.832Z,94756.97
2023-11-27T02:59:19.414Z,94751.00
2023-11-27T03:01:48.237Z,94752.47
2023-11-27T03:04:16.194Z,94754.56
2023-11-27T03:06:44.503Z,94746.63
2023-11-27T03:09:17.116Z,94751.78
2023-11-27T03:11:45.398Z,94749.00
2023-11-27T03:14:13.244Z,94747.03
2023-11-27T03:16:42.656Z,94751.22
2023-11-27T03:19:10.622Z,94745.88
2023-11-27T03:21:38.679Z,94745.63
2023-11-27T03:24:07.278Z,94744.00
2023-11-27T03:26:35.308Z,94748.78
2023-11-27T03:29:04.403Z,94737.97
2023-11-27T03:31:32.356Z,94742.16
2023-11-27T03:34:01.601Z,94729.88
2023-11-27T03:36:29.741Z,94735.25
2023-11-27T03:38:57.682Z,94742.63
2023-11-27T03:41:25.499Z,94744.25
2023-11-27T03:43:54.658Z,94748.16
2023-11-27T03:46:23.024Z,94751.16
2023-11-27T03:48:51.003Z,94743.47
2023-11-27T03:51:20.260Z,94735.94
2023-11-27T03:53:48.161Z,94749.00
2023-11-27T03:56:17.006Z,94739.91
2023-11-27T03:58:44.846Z,94745.06
2023-11-27T04:01:14.657Z,94740.28
2023-11-27T04:03:42.674Z,94737.72
2023-11-27T04:06:13.672Z,94738.69
2023-11-27T04:08:44.079Z,94738.69
2023-11-27T04:11:14.373Z,94726.03
2023-11-27T04:13:42.944Z,94731.19
2023-11-27T04:16:11.851Z,94731.19
2023-11-27T04:18:39.894Z,94726.03
2023-11-27T04:21:09.193Z,94713.50
2023-11-27T04:23:37.040Z,94707.75
2023-11-27T04:26:06.952Z,94708.72
2023-11-27T04:28:34.828Z,94702.13
2023-11-27T04:31:02.764Z,94694.59
2023-11-27T04:33:30.728Z,94695.38
2023-11-27T04:35:58.648Z,94697.81
2023-11-27T04:38:26.570Z,94695.44
2023-11-27T04:40:54.428Z,94693.84
2023-11-27T04:43:24.575Z,94688.69
2023-11-27T04:45:52.552Z,94690.66
2023-11-27T04:48:20.952Z,94688.69
2023-11-27T04:50:48.800Z,94692.25
2023-11-27T04:53:16.621Z,94691.66
2023-11-27T04:55:44.507Z,94695.84
2023-11-27T04:58:12.392Z,94704.31
2023-11-27T05:00:41.636Z,94693.53
2023-11-27T05:03:09.527Z,94699.69
2023-11-27T05:05:37.742Z,94697.09
2023-11-27T05:08:06.002Z,94690.56
2023-11-27T05:10:40.080Z,94702.09
2023-11-27T05:13:08.069Z,94701.31
2023-11-27T05:15:35.926Z,94697.31
2023-11-27T05:18:05.886Z,94700.50
2023-11-27T05:20:33.776Z,94696.94
2023-11-27T05:23:02.963Z,94691.78
2023-11-27T05:25:30.949Z,94691.41
2023-11-27T05:27:58.862Z,94678.31
2023-11-27T05:30:26.833Z,94686.06
2023-11-27T05:32:54.762Z,94677.53
2023-11-27T05:35:23.973Z,94682.31
2023-11-27T05:37:51.835Z,94689.00
2023-11-27T05:40:19.905Z,94683.44
2023-11-27T05:42:47.767Z,94690.34
2023-11-27T05:45:16.171Z,94679.88
2023-11-27T05:47:44.323Z,94683.06
2023-11-27T05:50:14.604Z,94673.13
2023-11-27T05:52:44.123Z,94676.69
2023-11-27T05:55:12.002Z,94668.94
2023-11-27T05:57:39.856Z,94675.09
2023-11-27T06:00:09.024Z,94667.97
2023-11-27T06:02:42.655Z,94667.97
2023-11-27T06:05:10.931Z,94659.63
2023-11-27T06:07:39.025Z,94650.91
2023-11-27T06:10:09.455Z,94649.31
2023-11-27T06:12:37.309Z,94659.25
2023-11-27T06:15:06.190Z,94647.94
2023-11-27T06:17:34.212Z,94650.91
2023-11-27T06:20:02.044Z,94648.59
2023-11-27T06:22:33.305Z,94655.59
2023-11-27T06:25:01.557Z,94645.84
2023-11-27T06:27:30.874Z,94643.66
2023-11-27T06:29:58.972Z,94648.06
2023-11-27T06:32:26.869Z,94639.84
2023-11-27T06:34:54.862Z,94641.91
2023-11-27T06:37:22.941Z,94643.50
2023-11-27T06:39:50.814Z,94648.28
2023-11-27T06:42:18.656Z,94651.44
2023-11-27T06:44:47.927Z,94652.22
2023-11-27T06:47:15.836Z,94650.50
2023-11-27T06:49:45.087Z,94646.16
2023-11-27T06:52:12.997Z,94648.19
2023-11-27T06:54:41.057Z,94641.44
2023-11-27T06:57:10.096Z,94644.25
2023-11-27T06:59:38.627Z,94643.25
2023-11-27T07:02:07.994Z,94650.63
2023-11-27T07:04:35.982Z,94647.44
2023-11-27T07:07:04.013Z,94649.41
2023-11-27T07:09:31.877Z,94647.44
2023-11-27T07:11:59.761Z,94654.19
2023-11-27T07:14:27.774Z,94652.59
2023-11-27T07:16:55.959Z,94653.56
2023-11-27T07:19:26.241Z,94643.88
2023-11-27T07:21:54.159Z,94654.97
2023-11-27T07:24:22.748Z,94651.41
2023-11-27T07:26:50.678Z,94659.75
2023-11-27T07:29:18.580Z,94663.28
2023-11-27T07:31:48.256Z,94662.44
2023-11-27T07:34:16.536Z,94662.44
2023-11-27T07:36:45.847Z,94665.81
2023-11-27T07:39:14.015Z,94669.19
2023-11-27T07:41:41.886Z,94675.50
2023-11-27T07:44:16.552Z,94670.34
2023-11-27T07:46:44.642Z,94670.31
2023-11-27T07:49:12.864Z,94662.13
2023-11-27T07:51:40.779Z,94668.16
2023-11-27T07:54:10.125Z,94670.09
2023-11-27T07:56:38.054Z,94660.84
2023-11-27T07:59:06.173Z,94655.91
2023-11-27T08:01:35.705Z,94658.13
2023-11-27T08:04:03.810Z,94651.81
2023-11-27T08:06:31.784Z,94655.78
2023-11-27T08:08:59.996Z,94660.44
2023-11-27T08:11:33.304Z,94655.59
2023-11-27T08:14:01.264Z,94649.97
2023-11-27T08:16:29.610Z,94645.66
2023-11-27T08:18:57.584Z,94647.34
2023-11-27T08:21:26.192Z,94654.91
2023-11-27T08:23:56.163Z,94647.03
2023-11-27T08:26:24.812Z,94634.84
2023-11-27T08:28:54.161Z,94636.06
2023-11-27T08:31:23.890Z,94632.56
2023-11-27T08:33:51.741Z,94624.63
2023-11-27T08:36:25.907Z,94622.06
2023-11-27T08:38:53.788Z,94618.88
2023-11-27T08:41:21.734Z,94621.81
2023-11-27T08:43:49.752Z,94622.56
2023-11-27T08:46:20.537Z,94614.22
2023-11-27T08:48:48.533Z,94614.81
2023-11-27T08:51:16.462Z,94601.53
2023-11-27T08:53:44.368Z,94601.97
2023-11-27T08:56:13.141Z,94598.59
2023-11-27T08:58:41.106Z,94581.38
2023-11-27T09:01:09.708Z,94579.59
2023-11-27T09:03:39.005Z,94585.38
2023-11-27T09:06:07.984Z,94581.00
2023-11-27T09:08:35.855Z,94576.63
2023-11-27T09:11:03.920Z,94563.53
2023-11-27T09:13:31.903Z,94575.06
2023-11-27T09:15:59.961Z,94565.31
2023-11-27T09:18:27.882Z,94569.09
2023-11-27T09:20:57.063Z,94562.75
2023-11-27T09:23:24.925Z,94561.16
2023-11-27T09:25:53.086Z,94557.56
2023-11-27T09:28:21.021Z,94553.00
2023-11-27T09:30:49.361Z,94552.41
2023-11-27T09:33:17.275Z,94554.59
2023-11-27T09:35:45.161Z,94547.63
2023-11-27T09:38:14.497Z,94551.22
2023-11-27T09:40:44.151Z,94548.81
2023-11-27T09:43:13.508Z,94543.66
2023-11-27T09:45:41.543Z,94542.47
2023-11-27T09:48:12.175Z,94546.84
2023-11-27T09:50:46.566Z,94540.47
2023-11-27T09:53:21.103Z,94540.84
2023-11-27T09:55:53.328Z,94544.66
2023-11-27T09:58:23.027Z,94538.91
2023-11-27T10:00:51.059Z,94538.09
2023-11-27T10:03:20.471Z,94534.09
2023-11-27T10:05:50.667Z,94527.75
2023-11-27T10:08:20.329Z,94534.50
2023-11-27T10:10:49.226Z,94529.53
2023-11-27T10:13:31.450Z,94521.19
2023-11-27T10:16:06.863Z,94515.41
2023-11-27T10:18:34.896Z,94509.03
2023-11-27T10:21:02.853Z,94499.06
2023-11-27T10:23:32.828Z,94507.00
2023-11-27T10:26:02.108Z,94497.44
2023-11-27T10:29:02.317Z,94480.28
2023-11-27T10:31:32.248Z,94481.88
2023-11-27T10:34:00.273Z,94472.72
2023-11-27T10:36:28.358Z,94468.31
2023-11-27T10:39:16.356Z,94464.34
2023-11-27T10:41:47.005Z,94461.78
2023-11-27T10:44:16.643Z,94458.78
2023-11-27T10:46:46.104Z,94452.78
2023-11-27T10:49:15.922Z,94447.22
2023-11-27T10:51:46.856Z,94436.28
2023-11-27T10:54:18.376Z,94436.06
2023-11-27T10:56:47.650Z,94418.13
2023-11-27T10:59:18.226Z,94411.72
2023-11-27T11:01:49.997Z,94398.59
2023-11-27T11:04:25.083Z,94383.44
2023-11-27T11:06:56.661Z,94389.81
2023-11-27T11:09:26.990Z,94376.66
2023-11-27T11:11:56.527Z,94369.66
2023-11-27T11:14:28.119Z,94361.47
2023-11-27T11:17:08.685Z,94360.47
2023-11-27T11:19:44.567Z,94342.78
2023-11-27T11:22:25.894Z,94347.97
2023-11-27T11:25:10.985Z,94354.56
2023-11-27T11:27:47.627Z,94351.13
2023-11-27T11:30:16.430Z,94346.38
2023-11-27T11:32:46.070Z,94337.38
2023-11-27T11:35:14.118Z,94333.84
2023-11-27T11:37:50.436Z,94326.50
2023-11-27T11:40:20.448Z,94326.50
2023-11-27T11:42:51.111Z,94320.81
2023-11-27T11:45:26.480Z,94314.06
2023-11-27T11:47:58.953Z,94312.91
2023-11-27T11:50:31.646Z,94315.22
2023-11-27T11:53:04.858Z,94323.13
2023-11-27T11:55:35.864Z,94329.09
2023-11-27T11:58:08.772Z,94317.91
2023-11-27T12:00:45.838Z,94318.31
2023-11-27T12:03:18.033Z,94306.81
2023-11-27T12:05:50.937Z,94298.47
2023-11-27T12:08:19.208Z,94292.88
2023-11-27T12:10:48.502Z,94296.38
2023-11-27T12:13:16.668Z,94288.69
2023-11-27T12:15:44.795Z,94285.41
2023-11-27T12:18:14.317Z,94278.06
2023-11-27T12:20:43.736Z,94277.66
2023-11-27T12:23:14.734Z,94260.63
2023-11-27T12:25:43.444Z,94264.59
2023-11-27T12:28:13.496Z,94260.56
2023-11-27T12:30:44.557Z,94253.00
2023-11-27T12:33:16.278Z,94260.63
2023-11-27T12:35:47.027Z,94246.75
2023-11-27T12:38:18.712Z,94247.28
2023-11-27T12:40:49.275Z,94231.03
2023-11-27T12:43:19.632Z,94229.88
2023-11-27T12:45:58.296Z,94222.75
2023-11-27T12:48:26.432Z,94226.88
2023-11-27T12:50:56.117Z,94226.31
2023-11-27T12:53:24.933Z,94215.38
2023-11-27T12:55:55.270Z,94214.09
2023-11-27T12:58:25.661Z,94215.25
2023-11-27T13:00:57.115Z,94217.84
2023-11-27T13:03:29.329Z,94208.06
2023-11-27T13:06:01.055Z,94205.63
2023-11-27T13:08:33.439Z,94204.47
2023-11-27T13:11:05.556Z,94192.13
2023-11-27T13:13:35.556Z,94191.69
2023-11-27T13:16:07.440Z,94184.91
2023-11-27T13:18:36.641Z,94190.94
2023-11-27T13:21:09.728Z,94191.38
2023-11-27T13:23:38.971Z,94178.56
2023-11-27T13:26:19.218Z,94179.31
2023-11-27T13:28:48.530Z,94178.91
2023-11-27T13:31:17.694Z,94174.44
2023-11-27T13:33:45.901Z,94176.00
2023-11-27T13:36:20.379Z,94166.81
2023-11-27T13:38:48.964Z,94163.63
2023-11-27T13:41:17.216Z,94153.28
2023-11-27T13:43:45.354Z,94150.06
2023-11-27T13:46:15.681Z,94134.88
2023-11-27T13:48:43.830Z,94136.47
2023-11-27T13:51:21.799Z,94132.41
2023-11-27T13:53:49.654Z,94125.66
2023-11-27T13:56:20.827Z,94116.88
2023-11-27T13:58:53.256Z,94117.31
2023-11-27T14:01:23.654Z,94105.38
2023-11-27T14:03:52.045Z,94096.47
2023-11-27T14:06:23.950Z,94094.28
2023-11-27T14:08:55.198Z,94087.13
2023-11-27T14:11:32.887Z,94078.34
2023-11-27T14:14:06.629Z,94087.13
2023-11-27T14:16:44.921Z,94085.53
2023-11-27T14:19:43.039Z,94080.78
2023-11-27T14:22:28.564Z,94072.00
2023-11-27T14:24:59.333Z,94064.03
2023-11-27T14:27:39.186Z,94061.22
2023-11-27T14:30:13.752Z,94069.56
2023-11-27T14:32:43.356Z,94065.81
2023-11-27T14:35:15.973Z,94066.41
2023-11-27T14:37:44.229Z,94062.25
2023-11-27T14:40:21.355Z,94059.66
2023-11-27T14:42:51.283Z,94049.28
2023-11-27T14:45:19.340Z,94063.22
2023-11-27T14:47:48.765Z,94064.09
2023-11-27T14:50:21.596Z,94067.91
2023-11-27T14:52:51.241Z,94056.63
2023-11-27T14:55:20.999Z,94031.16
2023-11-27T14:57:50.000Z,94032.03
2023-11-27T15:00:23.481Z,94026.84
2023-11-27T15:02:52.842Z,94030.00
2023-11-27T15:05:20.794Z,94014.91
2023-11-27T15:07:49.591Z,94008.16
2023-11-27T15:10:18.178Z,93999.38
2023-11-27T15:12:47.376Z,93990.59
2023-11-27T15:15:19.178Z,93980.25
2023-11-27T15:17:50.319Z,93977.25
2023-11-27T15:20:24.324Z,93961.50
2023-11-27T15:22:54.105Z,93962.28
2023-11-27T15:25:24.456Z,93968.25
2023-11-27T15:27:52.711Z,93974.22
2023-11-27T15:30:22.617Z,93970.63
2023-11-27T15:32:50.522Z,93961.84
2023-11-27T15:35:20.509Z,93949.50
2023-11-27T15:37:49.304Z,93957.25
2023-11-27T15:40:21.700Z,93942.69
2023-11-27T15:42:49.819Z,93927.16
2023-11-27T15:45:17.686Z,93925.59
2023-11-27T15:47:46.056Z,93918.41
2023-11-27T15:50:15.061Z,93913.25
2023-11-27T15:52:47.034Z,93920.00
2023-11-27T15:55:15.601Z,93912.78
2023-11-27T15:57:45.298Z,93905.59
2023-11-27T16:00:15.872Z,93902.66
2023-11-27T16:02:43.965Z,93895.91
2023-11-27T16:05:12.366Z,93879.94
2023-11-27T16:07:41.228Z,93901.69
2023-11-27T16:10:15.416Z,93919.81
2023-11-27T16:12:43.748Z,93918.66
2023-11-27T16:15:12.210Z,93934.63
2023-11-27T16:17:52.961Z,93948.59
2023-11-27T16:20:27.468Z,93971.63
2023-11-27T16:22:55.961Z,93963.50
2023-11-27T16:25:25.763Z,93978.59
2023-11-27T16:27:53.626Z,93973.94
2023-11-27T16:30:23.400Z,93959.88
2023-11-27T16:32:51.980Z,93965.13
2023-11-27T16:35:23.373Z,93957.78
2023-11-27T16:37:52.597Z,93948.75
2023-11-27T16:40:21.967Z,93948.59
2023-11-27T16:42:53.918Z,93944.59
2023-11-27T16:45:24.193Z,93954.13
2023-11-27T16:47:53.408Z,93957.66
2023-11-27T16:50:25.712Z,93945.72
2023-11-27T16:52:56.108Z,93934.84
2023-11-27T16:55:25.616Z,93924.84
2023-11-27T16:57:56.421Z,93917.56
2023-11-27T17:00:25.882Z,93913.56
2023-11-27T17:02:54.702Z,93906.38
2023-11-27T17:05:24.486Z,93903.84
2023-11-27T17:07:52.426Z,93901.31
2023-11-27T17:10:22.710Z,93891.66
2023-11-27T17:12:52.134Z,93882.47
2023-11-27T17:15:21.559Z,93876.16
2023-11-27T17:17:51.490Z,93867.38
2023-11-27T17:20:21.943Z,93865.59
2023-11-27T17:23:00.753Z,93856.25
2023-11-27T17:25:36.562Z,93869.31
2023-11-27T17:28:06.288Z,93862.13
2023-11-27T17:30:35.629Z,93858.31
2023-11-27T17:33:04.473Z,93864.50
2023-11-27T17:35:32.987Z,93870.13
2023-11-27T17:38:03.872Z,93861.34
2023-11-27T17:40:31.939Z,93894.81
2023-11-27T17:43:00.401Z,93890.63
2023-11-27T17:45:29.085Z,93890.97
2023-11-27T17:47:58.522Z,93885.94
2023-11-27T17:50:27.190Z,93889.66
2023-11-27T17:52:56.610Z,93894.91
2023-11-27T17:55:26.955Z,93886.06
2023-11-27T17:57:56.513Z,93873.72
2023-11-27T18:00:24.631Z,93868.53
2023-11-27T18:02:54.203Z,93873.78
2023-11-27T18:05:25.244Z,93863.53
2023-11-27T18:07:54.263Z,93863.09
2023-11-27T18:10:24.221Z,93861.88
2023-11-27T18:12:53.105Z,93850.28
2023-11-27T18:15:22.048Z,93842.66
2023-11-27T18:17:52.141Z,93837.34
2023-11-27T18:20:23.433Z,93840.09
2023-11-27T18:22:53.262Z,93835.91
2023-11-27T18:25:22.722Z,93840.28
2023-11-27T18:27:52.059Z,93841.50
2023-11-27T18:30:20.514Z,93837.22
2023-11-27T18:32:48.967Z,93842.16
2023-11-27T18:35:18.052Z,93834.06
2023-11-27T18:37:47.606Z,93827.09
2023-11-27T18:40:18.882Z,93838.13
2023-11-27T18:42:49.619Z,93834.06
2023-11-27T18:45:22.298Z,93840.13
2023-11-27T18:47:50.821Z,93839.16
2023-11-27T18:50:18.697Z,93846.81
2023-11-27T18:52:46.684Z,93853.97
2023-11-27T18:55:16.496Z,93856.75
2023-11-27T19:00:16.123Z,93876.16
2023-11-27T19:02:44.427Z,93872.03
2023-11-27T19:05:13.541Z,93884.50
2023-11-27T19:07:42.139Z,93889.13
2023-11-27T19:10:11.148Z,93894.72
2023-11-27T19:12:41.349Z,93897.63
2023-11-27T19:15:10.364Z,93894.19
2023-11-27T19:17:38.483Z,93900.09
2023-11-27T19:20:11.589Z,93899.66
2023-11-27T19:22:39.814Z,93893.16
2023-11-27T19:25:11.552Z,93888.72
2023-11-27T19:27:41.039Z,93868.38
2023-11-27T19:30:10.789Z,93884.34
2023-11-27T19:32:40.489Z,93869.28
2023-11-27T19:35:11.141Z,93879.63
2023-11-27T19:37:39.242Z,93872.81
2023-11-27T19:40:09.533Z,93872.56
2023-11-27T19:42:37.630Z,93871.63
2023-11-27T19:45:09.394Z,93858.81
2023-11-27T19:47:37.537Z,93854.44
2023-11-27T19:50:08.137Z,93843.41
2023-11-27T19:52:36.224Z,93843.53
2023-11-27T19:55:04.246Z,93838.28
2023-11-27T19:57:32.094Z,93838.63
2023-11-27T19:59:59.961Z,93833.47
2023-11-27T20:02:29.293Z,93832.88
2023-11-27T20:04:57.267Z,93836.16
2023-11-27T20:07:25.184Z,93825.34
2023-11-27T20:09:53.044Z,93832.13
2023-11-27T20:12:20.886Z,93820.19
2023-11-27T20:14:48.770Z,93829.84
2023-11-27T20:17:16.772Z,93827.72
2023-11-27T20:19:46.017Z,93823.56
2023-11-27T20:22:13.915Z,93823.56
2023-11-27T20:24:41.744Z,93825.53
2023-11-27T20:27:10.214Z,93828.00
2023-11-27T20:29:43.492Z,93811.47
2023-11-27T20:32:11.451Z,93806.88
2023-11-27T20:34:39.419Z,93798.56
2023-11-27T20:37:08.948Z,93808.09
2023-11-27T20:39:36.858Z,93802.59
2023-11-27T20:42:04.846Z,93800.34
2023-11-27T20:44:39.095Z,93797.19
2023-11-27T20:47:12.579Z,93795.63
2023-11-27T20:49:40.455Z,93781.22
2023-11-27T20:52:12.060Z,93786.75
2023-11-27T20:54:42.087Z,93792.69
2023-11-27T20:57:09.958Z,93781.66
2023-11-27T20:59:38.890Z,93784.03
2023-11-27T21:02:07.165Z,93783.25
2023-11-27T21:04:38.139Z,93776.06
2023-11-27T21:07:08.436Z,93781.22
2023-11-27T21:09:39.882Z,93770.16
2023-11-27T21:12:08.996Z,93770.97
2023-11-27T21:14:36.856Z,93764.59
2023-11-27T21:17:05.438Z,93759.41
2023-11-27T21:19:33.431Z,93762.97
2023-11-27T21:22:01.579Z,93758.19
2023-11-27T21:24:29.435Z,93743.44
2023-11-27T21:27:00.872Z,93734.91
2023-11-27T21:29:30.095Z,93726.34
2023-11-27T21:31:58.014Z,93731.53
2023-11-27T21:34:25.924Z,93726.78
2023-11-27T21:36:53.787Z,93714.84
2023-11-27T21:39:22.514Z,93711.59
2023-11-27T21:41:50.579Z,93712.59
2023-11-27T21:44:19.871Z,93714.97
2023-11-27T21:46:47.773Z,93706.75
2023-11-27T21:49:16.006Z,93709.91
2023-11-27T21:51:43.857Z,93710.00
2023-11-27T21:54:13.444Z,93708.78
2023-11-27T21:56:41.316Z,93716.38
2023-11-27T21:59:09.388Z,93717.28
2023-11-27T22:01:38.753Z,93710.53
2023-11-27T22:04:06.759Z,93713.25
2023-11-27T22:06:34.980Z,93703.25
2023-11-27T22:09:03.390Z,93699.56
2023-11-27T22:11:31.257Z,93684.84
2023-11-27T22:13:59.145Z,93680.78
2023-11-27T22:16:27.774Z,93675.50
2023-11-27T22:18:57.108Z,93668.09
2023-11-27T22:21:24.929Z,93666.53
2023-11-27T22:23:52.991Z,93682.69
2023-11-27T22:26:21.009Z,93683.59
2023-11-27T22:28:50.014Z,93678.53
2023-11-27T22:31:21.196Z,93676.88
2023-11-27T22:33:49.284Z,93656.19
2023-11-27T22:36:19.093Z,93659.78
2023-11-27T22:38:46.961Z,93652.59
2023-11-27T22:41:15.389Z,93645.16
2023-11-27T22:43:43.292Z,93645.50
2023-11-27T22:46:11.570Z,93645.38
2023-11-27T22:48:39.474Z,93653.69
2023-11-27T22:51:08.324Z,93638.06
2023-11-27T22:53:37.550Z,93650.81
2023-11-27T22:56:06.103Z,93640.00
2023-11-27T22:58:34.078Z,93636.41
2023-11-27T23:01:01.955Z,93641.56
2023-11-27T23:03:29.929Z,93629.66
2023-11-27T23:05:57.978Z,93635.84
2023-11-27T23:08:25.848Z,93628.88
2023-11-27T23:10:55.270Z,93626.06
2023-11-27T23:13:23.436Z,93620.88
2023-11-27T23:15:51.326Z,93629.66
2023-11-27T23:18:19.193Z,93634.72
2023-11-27T23:20:47.075Z,93634.38
2023-11-27T23:23:15.045Z,93634.84
2023-11-27T23:25:44.515Z,93628.75
2023-11-27T23:28:14.834Z,93630.31
2023-11-27T23:30:44.236Z,93627.84
2023-11-27T23:33:12.180Z,93633.00
2023-11-27T23:35:40.430Z,93641.47
2023-11-27T23:38:08.264Z,93638.44
2023-11-27T23:40:36.760Z,93652.94
2023-11-27T23:43:04.715Z,93651.69
2023-11-27T23:45:34.652Z,93653.69
2023-11-27T23:48:02.592Z,93660.00
2023-11-27T23:50:30.553Z,93666.75
2023-11-27T23:52:58.440Z,93664.38
2023-11-27T23:55:26.379Z,93665.63
2023-11-27T23:57:54.325Z,93654.81
